sensor_id;sensor_type;location;lat;lon;timestamp;temperature;humidity
26743;DHT22;14341;51.256;22.478;2023-03-26T00:01:17;6.10;99.90
26743;DHT22;14341;51.256;22.478;2023-03-26T00:04:48;6.10;99.90
26743;DHT22;14341;51.256;22.478;2023-03-26T00:08:05;6.00;99.90
26743;DHT22;14341;51.256;22.478;2023-03-26T00:11:20;6.00;99.90
26743;DHT22;14341;51.256;22.478;2023-03-26T00:14:39;6.00;99.90
26743;DHT22;14341;51.256;22.478;2023-03-26T00:18:02;5.90;99.90
26743;DHT22;14341;51.256;22.478;2023-03-26T00:21:20;6.00;99.90
26743;DHT22;14341;51.256;22.478;2023-03-26T00:24:32;5.90;99.90
26743;DHT22;14341;51.256;22.478;2023-03-26T00:28:03;5.80;99.90
26743;DHT22;14341;51.256;22.478;2023-03-26T00:31:30;5.80;99.90
26743;DHT22;14341;51.256;22.478;2023-03-26T00:34:55;5.70;99.90
26743;DHT22;14341;51.256;22.478;2023-03-26T00:38:28;5.60;99.90
26743;DHT22;14341;51.256;22.478;2023-03-26T00:41:48;5.60;99.90
26743;DHT22;14341;51.256;22.478;2023-03-26T00:45:10;5.70;99.90
26743;DHT22;14341;51.256;22.478;2023-03-26T00:48:26;5.70;99.90
26743;DHT22;14341;51.256;22.478;2023-03-26T00:52:13;5.80;99.90
26743;DHT22;14341;51.256;22.478;2023-03-26T00:56:13;5.80;99.90
26743;DHT22;14341;51.256;22.478;2023-03-26T00:59:40;5.90;99.90
26743;DHT22;14341;51.256;22.478;2023-03-26T01:03:14;6.00;99.90
26743;DHT22;14341;51.256;22.478;2023-03-26T01:06:39;6.00;99.90
26743;DHT22;14341;51.256;22.478;2023-03-26T01:10:06;6.00;99.90
26743;DHT22;14341;51.256;22.478;2023-03-26T01:13:59;6.00;99.90
26743;DHT22;14341;51.256;22.478;2023-03-26T01:17:31;6.00;99.90
26743;DHT22;14341;51.256;22.478;2023-03-26T01:20:56;5.90;99.90
26743;DHT22;14341;51.256;22.478;2023-03-26T01:24:18;5.90;99.90
26743;DHT22;14341;51.256;22.478;2023-03-26T01:27:45;5.90;99.90
26743;DHT22;14341;51.256;22.478;2023-03-26T01:31:13;5.90;99.90
26743;DHT22;14341;51.256;22.478;2023-03-26T01:35:15;5.90;99.90
26743;DHT22;14341;51.256;22.478;2023-03-26T01:38:42;5.90;99.90
26743;DHT22;14341;51.256;22.478;2023-03-26T01:42:20;5.90;99.90
26743;DHT22;14341;51.256;22.478;2023-03-26T01:45:53;5.90;99.90
26743;DHT22;14341;51.256;22.478;2023-03-26T01:49:34;5.90;99.90
26743;DHT22;14341;51.256;22.478;2023-03-26T01:53:21;5.90;99.90
26743;DHT22;14341;51.256;22.478;2023-03-26T02:04:23;5.60;99.90
26743;DHT22;14341;51.256;22.478;2023-03-26T02:07:39;5.50;99.90
26743;DHT22;14341;51.256;22.478;2023-03-26T02:10:45;5.50;99.90
26743;DHT22;14341;51.256;22.478;2023-03-26T02:13:50;5.50;99.90
26743;DHT22;14341;51.256;22.478;2023-03-26T02:16:55;5.50;99.90
26743;DHT22;14341;51.256;22.478;2023-03-26T02:19:59;5.40;99.90
26743;DHT22;14341;51.256;22.478;2023-03-26T02:23:08;5.40;99.90
26743;DHT22;14341;51.256;22.478;2023-03-26T02:26:13;5.40;99.90
26743;DHT22;14341;51.256;22.478;2023-03-26T02:29:31;5.30;99.90
26743;DHT22;14341;51.256;22.478;2023-03-26T02:32:40;5.30;99.90
26743;DHT22;14341;51.256;22.478;2023-03-26T02:35:45;5.30;99.90
26743;DHT22;14341;51.256;22.478;2023-03-26T02:38:48;5.20;99.90
26743;DHT22;14341;51.256;22.478;2023-03-26T02:41:52;5.20;99.90
26743;DHT22;14341;51.256;22.478;2023-03-26T02:44:56;5.20;99.90
26743;DHT22;14341;51.256;22.478;2023-03-26T02:48:19;5.20;99.90
26743;DHT22;14341;51.256;22.478;2023-03-26T02:51:26;5.20;99.90
26743;DHT22;14341;51.256;22.478;2023-03-26T02:54:52;5.30;99.90
26743;DHT22;14341;51.256;22.478;2023-03-26T02:57:57;5.40;99.90
26743;DHT22;14341;51.256;22.478;2023-03-26T03:01:11;5.40;99.90
26743;DHT22;14341;51.256;22.478;2023-03-26T03:04:26;5.50;99.90
26743;DHT22;14341;51.256;22.478;2023-03-26T03:07:29;5.50;99.90
26743;DHT22;14341;51.256;22.478;2023-03-26T03:10:34;5.40;99.90
26743;DHT22;14341;51.256;22.478;2023-03-26T03:13:44;5.40;99.90
26743;DHT22;14341;51.256;22.478;2023-03-26T03:16:52;5.30;99.90
26743;DHT22;14341;51.256;22.478;2023-03-26T03:19:58;5.20;99.90
26743;DHT22;14341;51.256;22.478;2023-03-26T03:23:02;5.20;99.90
26743;DHT22;14341;51.256;22.478;2023-03-26T03:26:11;5.10;99.90
26743;DHT22;14341;51.256;22.478;2023-03-26T03:29:17;5.00;99.90
26743;DHT22;14341;51.256;22.478;2023-03-26T03:32:23;5.00;99.90
26743;DHT22;14341;51.256;22.478;2023-03-26T03:35:34;5.00;99.90
26743;DHT22;14341;51.256;22.478;2023-03-26T03:38:40;5.00;99.90
26743;DHT22;14341;51.256;22.478;2023-03-26T03:41:45;5.10;99.90
26743;DHT22;14341;51.256;22.478;2023-03-26T03:44:50;5.10;99.90
26743;DHT22;14341;51.256;22.478;2023-03-26T03:48:32;5.10;99.90
26743;DHT22;14341;51.256;22.478;2023-03-26T03:51:41;5.20;99.90
26743;DHT22;14341;51.256;22.478;2023-03-26T03:54:59;5.20;99.90
26743;DHT22;14341;51.256;22.478;2023-03-26T03:58:14;5.20;99.90
26743;DHT22;14341;51.256;22.478;2023-03-26T04:01:24;5.30;99.90
26743;DHT22;14341;51.256;22.478;2023-03-26T04:04:41;5.40;99.90
26743;DHT22;14341;51.256;22.478;2023-03-26T04:07:51;5.40;99.90
26743;DHT22;14341;51.256;22.478;2023-03-26T04:11:00;5.40;99.90
26743;DHT22;14341;51.256;22.478;2023-03-26T04:14:22;5.40;99.90
26743;DHT22;14341;51.256;22.478;2023-03-26T04:17:37;5.40;99.90
26743;DHT22;14341;51.256;22.478;2023-03-26T04:21:04;5.40;99.90
26743;DHT22;14341;51.256;22.478;2023-03-26T04:24:09;5.50;99.90
26743;DHT22;14341;51.256;22.478;2023-03-26T04:27:39;5.50;99.90
26743;DHT22;14341;51.256;22.478;2023-03-26T04:30:59;5.50;99.90
26743;DHT22;14341;51.256;22.478;2023-03-26T04:34:18;5.60;99.90
26743;DHT22;14341;51.256;22.478;2023-03-26T04:37:45;5.70;99.90
26743;DHT22;14341;51.256;22.478;2023-03-26T04:40:55;5.70;99.90
26743;DHT22;14341;51.256;22.478;2023-03-26T04:44:20;5.80;99.90
26743;DHT22;14341;51.256;22.478;2023-03-26T04:47:37;5.80;99.90
26743;DHT22;14341;51.256;22.478;2023-03-26T04:50:42;5.80;99.90
26743;DHT22;14341;51.256;22.478;2023-03-26T04:53:51;5.90;99.90
26743;DHT22;14341;51.256;22.478;2023-03-26T04:57:13;5.90;99.90
26743;DHT22;14341;51.256;22.478;2023-03-26T05:00:22;5.80;99.90
26743;DHT22;14341;51.256;22.478;2023-03-26T05:03:30;5.90;99.90
26743;DHT22;14341;51.256;22.478;2023-03-26T05:06:41;6.00;99.90
26743;DHT22;14341;51.256;22.478;2023-03-26T05:10:10;6.00;99.90
26743;DHT22;14341;51.256;22.478;2023-03-26T05:13:23;6.10;99.90
26743;DHT22;14341;51.256;22.478;2023-03-26T05:16:29;6.10;99.90
26743;DHT22;14341;51.256;22.478;2023-03-26T05:19:40;6.10;99.90
26743;DHT22;14341;51.256;22.478;2023-03-26T05:22:43;6.00;99.90
26743;DHT22;14341;51.256;22.478;2023-03-26T05:25:56;6.00;99.90
26743;DHT22;14341;51.256;22.478;2023-03-26T05:29:02;6.00;99.90
26743;DHT22;14341;51.256;22.478;2023-03-26T05:32:14;6.00;99.90
26743;DHT22;14341;51.256;22.478;2023-03-26T05:35:19;6.10;99.90
26743;DHT22;14341;51.256;22.478;2023-03-26T05:38:22;6.20;99.90
26743;DHT22;14341;51.256;22.478;2023-03-26T05:41:26;6.20;99.90
26743;DHT22;14341;51.256;22.478;2023-03-26T05:44:31;6.30;99.90
26743;DHT22;14341;51.256;22.478;2023-03-26T05:47:37;6.30;99.90
26743;DHT22;14341;51.256;22.478;2023-03-26T05:50:41;6.40;99.90
26743;DHT22;14341;51.256;22.478;2023-03-26T05:53:44;6.40;99.90
26743;DHT22;14341;51.256;22.478;2023-03-26T05:57:20;6.50;99.90
26743;DHT22;14341;51.256;22.478;2023-03-26T06:01:03;6.60;99.90
26743;DHT22;14341;51.256;22.478;2023-03-26T06:04:26;6.50;99.90
26743;DHT22;14341;51.256;22.478;2023-03-26T06:07:50;6.60;99.90
26743;DHT22;14341;51.256;22.478;2023-03-26T06:10:58;6.50;99.90
26743;DHT22;14341;51.256;22.478;2023-03-26T06:14:03;6.40;99.90
26743;DHT22;14341;51.256;22.478;2023-03-26T06:17:09;6.50;99.90
26743;DHT22;14341;51.256;22.478;2023-03-26T06:20:40;6.60;99.90
26743;DHT22;14341;51.256;22.478;2023-03-26T06:23:54;6.70;99.90
26743;DHT22;14341;51.256;22.478;2023-03-26T06:27:12;7.00;99.90
26743;DHT22;14341;51.256;22.478;2023-03-26T06:30:24;7.00;99.90
26743;DHT22;14341;51.256;22.478;2023-03-26T06:33:36;7.10;99.90
26743;DHT22;14341;51.256;22.478;2023-03-26T06:36:40;7.20;99.90
26743;DHT22;14341;51.256;22.478;2023-03-26T06:39:43;7.20;99.90
26743;DHT22;14341;51.256;22.478;2023-03-26T06:42:50;7.50;99.90
26743;DHT22;14341;51.256;22.478;2023-03-26T06:46:40;7.60;99.90
26743;DHT22;14341;51.256;22.478;2023-03-26T06:50:04;7.60;99.90
26743;DHT22;14341;51.256;22.478;2023-03-26T06:53:27;7.80;99.90
26743;DHT22;14341;51.256;22.478;2023-03-26T06:56:49;8.00;99.90
26743;DHT22;14341;51.256;22.478;2023-03-26T07:00:12;8.10;99.90
26743;DHT22;14341;51.256;22.478;2023-03-26T07:03:34;8.40;99.90
26743;DHT22;14341;51.256;22.478;2023-03-26T07:06:58;8.50;99.90
26743;DHT22;14341;51.256;22.478;2023-03-26T07:10:19;8.70;99.90
26743;DHT22;14341;51.256;22.478;2023-03-26T07:13:46;8.60;99.90
26743;DHT22;14341;51.256;22.478;2023-03-26T07:17:08;8.70;99.90
26743;DHT22;14341;51.256;22.478;2023-03-26T07:20:21;8.90;99.90
26743;DHT22;14341;51.256;22.478;2023-03-26T07:23:28;8.70;99.90
26743;DHT22;14341;51.256;22.478;2023-03-26T07:27:00;8.70;99.90
26743;DHT22;14341;51.256;22.478;2023-03-26T07:30:13;8.60;99.90
26743;DHT22;14341;51.256;22.478;2023-03-26T07:33:43;8.80;99.90
26743;DHT22;14341;51.256;22.478;2023-03-26T07:37:02;8.90;99.90
26743;DHT22;14341;51.256;22.478;2023-03-26T07:40:19;8.90;99.90
26743;DHT22;14341;51.256;22.478;2023-03-26T07:44:20;8.90;99.90
26743;DHT22;14341;51.256;22.478;2023-03-26T07:47:48;8.90;99.90
26743;DHT22;14341;51.256;22.478;2023-03-26T07:51:01;9.00;99.90
26743;DHT22;14341;51.256;22.478;2023-03-26T07:54:25;9.10;99.90
26743;DHT22;14341;51.256;22.478;2023-03-26T07:58:07;9.10;99.90
26743;DHT22;14341;51.256;22.478;2023-03-26T08:01:42;9.00;99.90
26743;DHT22;14341;51.256;22.478;2023-03-26T08:04:58;9.20;99.90
26743;DHT22;14341;51.256;22.478;2023-03-26T08:08:29;9.40;99.90
26743;DHT22;14341;51.256;22.478;2023-03-26T08:12:05;9.40;99.90
26743;DHT22;14341;51.256;22.478;2023-03-26T08:15:19;9.20;99.90
26743;DHT22;14341;51.256;22.478;2023-03-26T08:18:40;9.10;99.90
26743;DHT22;14341;51.256;22.478;2023-03-26T08:21:52;8.90;99.90
26743;DHT22;14341;51.256;22.478;2023-03-26T08:25:24;8.90;99.90
26743;DHT22;14341;51.256;22.478;2023-03-26T08:28:51;9.20;99.90
26743;DHT22;14341;51.256;22.478;2023-03-26T08:31:59;9.50;99.90
26743;DHT22;14341;51.256;22.478;2023-03-26T08:35:04;9.70;99.90
26743;DHT22;14341;51.256;22.478;2023-03-26T08:38:10;9.80;99.90
26743;DHT22;14341;51.256;22.478;2023-03-26T08:45:24;10.00;99.90
26743;DHT22;14341;51.256;22.478;2023-03-26T08:49:11;10.00;99.90
26743;DHT22;14341;51.256;22.478;2023-03-26T08:52:41;10.10;99.90
26743;DHT22;14341;51.256;22.478;2023-03-26T08:55:54;10.10;99.90
26743;DHT22;14341;51.256;22.478;2023-03-26T09:00:00;10.20;99.90
26743;DHT22;14341;51.256;22.478;2023-03-26T09:07:25;10.00;99.90
26743;DHT22;14341;51.256;22.478;2023-03-26T09:11:31;10.20;99.90
26743;DHT22;14341;51.256;22.478;2023-03-26T09:19:10;10.50;99.90
26743;DHT22;14341;51.256;22.478;2023-03-26T09:23:06;10.70;99.90
26743;DHT22;14341;51.256;22.478;2023-03-26T09:26:26;10.60;98.40
26743;DHT22;14341;51.256;22.478;2023-03-26T09:30:14;10.60;99.90
26743;DHT22;14341;51.256;22.478;2023-03-26T09:33:56;10.80;99.10
26743;DHT22;14341;51.256;22.478;2023-03-26T09:37:20;10.80;89.20
26743;DHT22;14341;51.256;22.478;2023-03-26T09:40:45;10.90;81.50
26743;DHT22;14341;51.256;22.478;2023-03-26T09:44:17;11.30;30.30
26743;DHT22;14341;51.256;22.478;2023-03-26T09:47:56;11.50;59.60
26743;DHT22;14341;51.256;22.478;2023-03-26T09:51:21;11.00;95.40
26743;DHT22;14341;51.256;22.478;2023-03-26T10:02:02;10.10;99.90
26743;DHT22;14341;51.256;22.478;2023-03-26T10:05:34;10.40;99.90
26743;DHT22;14341;51.256;22.478;2023-03-26T10:09:24;11.00;99.90
26743;DHT22;14341;51.256;22.478;2023-03-26T10:13:02;11.30;88.90
26743;DHT22;14341;51.256;22.478;2023-03-26T10:16:28;11.40;67.10
26743;DHT22;14341;51.256;22.478;2023-03-26T10:23:37;11.70;38.80
26743;DHT22;14341;51.256;22.478;2023-03-26T10:27:20;11.80;36.50
26743;DHT22;14341;51.256;22.478;2023-03-26T10:34:30;11.80;18.40
26743;DHT22;14341;51.256;22.478;2023-03-26T10:37:49;11.60;1.00
26743;DHT22;14341;51.256;22.478;2023-03-26T10:41:02;11.60;1.00
26743;DHT22;14341;51.256;22.478;2023-03-26T10:44:35;11.70;1.00
26743;DHT22;14341;51.256;22.478;2023-03-26T10:51:46;12.30;1.00
26743;DHT22;14341;51.256;22.478;2023-03-26T10:55:09;12.30;1.00
26743;DHT22;14341;51.256;22.478;2023-03-26T10:58:21;12.80;1.00
26743;DHT22;14341;51.256;22.478;2023-03-26T11:01:57;13.00;1.00
26743;DHT22;14341;51.256;22.478;2023-03-26T11:05:25;13.40;1.00
26743;DHT22;14341;51.256;22.478;2023-03-26T11:08:38;13.50;99.90
26743;DHT22;14341;51.256;22.478;2023-03-26T11:11:52;13.20;99.90
26743;DHT22;14341;51.256;22.478;2023-03-26T11:15:19;12.60;99.90
26743;DHT22;14341;51.256;22.478;2023-03-26T11:18:35;12.20;1.00
26743;DHT22;14341;51.256;22.478;2023-03-26T11:21:49;11.70;1.00
26743;DHT22;14341;51.256;22.478;2023-03-26T11:25:08;11.90;1.00
26743;DHT22;14341;51.256;22.478;2023-03-26T11:28:43;11.70;1.00
26743;DHT22;14341;51.256;22.478;2023-03-26T11:32:16;11.60;1.00
26743;DHT22;14341;51.256;22.478;2023-03-26T11:35:38;11.70;1.00
26743;DHT22;14341;51.256;22.478;2023-03-26T11:38:47;12.00;1.00
26743;DHT22;14341;51.256;22.478;2023-03-26T11:42:06;11.90;1.00
26743;DHT22;14341;51.256;22.478;2023-03-26T11:45:19;11.90;1.00
26743;DHT22;14341;51.256;22.478;2023-03-26T11:48:40;12.00;1.00
26743;DHT22;14341;51.256;22.478;2023-03-26T11:51:53;12.40;1.00
26743;DHT22;14341;51.256;22.478;2023-03-26T11:54:59;12.20;1.00
26743;DHT22;14341;51.256;22.478;2023-03-26T11:58:05;11.70;1.00
26743;DHT22;14341;51.256;22.478;2023-03-26T12:01:41;11.40;81.80
26743;DHT22;14341;51.256;22.478;2023-03-26T12:05:14;10.60;99.90
26743;DHT22;14341;51.256;22.478;2023-03-26T12:08:39;10.50;99.90
26743;DHT22;14341;51.256;22.478;2023-03-26T12:12:09;10.50;98.70
26743;DHT22;14341;51.256;22.478;2023-03-26T12:15:24;10.60;56.90
26743;DHT22;14341;51.256;22.478;2023-03-26T12:18:30;10.80;67.10
26743;DHT22;14341;51.256;22.478;2023-03-26T12:21:48;11.00;98.20
26743;DHT22;14341;51.256;22.478;2023-03-26T12:25:14;11.00;90.10
26743;DHT22;14341;51.256;22.478;2023-03-26T12:28:27;12.10;82.10
26743;DHT22;14341;51.256;22.478;2023-03-26T12:31:47;13.30;1.00
26743;DHT22;14341;51.256;22.478;2023-03-26T12:34:59;14.00;1.00
26743;DHT22;14341;51.256;22.478;2023-03-26T12:38:22;14.80;1.00
26743;DHT22;14341;51.256;22.478;2023-03-26T12:41:46;14.10;1.00
26743;DHT22;14341;51.256;22.478;2023-03-26T12:45:19;14.90;99.90
26743;DHT22;14341;51.256;22.478;2023-03-26T12:48:27;15.20;99.90
26743;DHT22;14341;51.256;22.478;2023-03-26T12:51:42;14.10;99.90
26743;DHT22;14341;51.256;22.478;2023-03-26T12:54:57;13.60;1.00
26743;DHT22;14341;51.256;22.478;2023-03-26T12:58:42;13.70;1.00
26743;DHT22;14341;51.256;22.478;2023-03-26T13:02:05;13.40;1.00
26743;DHT22;14341;51.256;22.478;2023-03-26T13:05:37;13.60;1.00
26743;DHT22;14341;51.256;22.478;2023-03-26T13:09:07;14.10;1.00
26743;DHT22;14341;51.256;22.478;2023-03-26T13:12:29;14.20;99.90
26743;DHT22;14341;51.256;22.478;2023-03-26T13:15:37;14.20;1.00
26743;DHT22;14341;51.256;22.478;2023-03-26T13:18:46;14.90;99.90
26743;DHT22;14341;51.256;22.478;2023-03-26T13:22:05;16.00;99.90
26743;DHT22;14341;51.256;22.478;2023-03-26T13:25:24;15.60;99.90
26743;DHT22;14341;51.256;22.478;2023-03-26T13:28:35;14.80;99.90
26743;DHT22;14341;51.256;22.478;2023-03-26T13:31:50;13.10;99.90
26743;DHT22;14341;51.256;22.478;2023-03-26T13:35:07;12.70;1.00
26743;DHT22;14341;51.256;22.478;2023-03-26T13:38:21;12.10;1.00
26743;DHT22;14341;51.256;22.478;2023-03-26T13:41:34;11.30;1.00
26743;DHT22;14341;51.256;22.478;2023-03-26T13:44:51;10.30;29.40
26743;DHT22;14341;51.256;22.478;2023-03-26T13:48:11;9.60;99.90
26743;DHT22;14341;51.256;22.478;2023-03-26T13:51:18;9.20;99.90
26743;DHT22;14341;51.256;22.478;2023-03-26T13:54:29;9.00;99.90
26743;DHT22;14341;51.256;22.478;2023-03-26T13:57:37;9.20;99.90
26743;DHT22;14341;51.256;22.478;2023-03-26T14:00:50;9.60;99.90
26743;DHT22;14341;51.256;22.478;2023-03-26T14:03:59;10.60;99.90
26743;DHT22;14341;51.256;22.478;2023-03-26T14:07:08;11.50;99.90
26743;DHT22;14341;51.256;22.478;2023-03-26T14:10:20;12.40;60.50
26743;DHT22;14341;51.256;22.478;2023-03-26T14:13:29;12.90;12.30
26743;DHT22;14341;51.256;22.478;2023-03-26T14:16:38;13.60;1.00
26743;DHT22;14341;51.256;22.478;2023-03-26T14:27:36;12.80;1.00
26743;DHT22;14341;51.256;22.478;2023-03-26T14:31:10;12.00;1.00
26743;DHT22;14341;51.256;22.478;2023-03-26T14:34:29;11.70;1.00
26743;DHT22;14341;51.256;22.478;2023-03-26T14:38:09;12.00;1.00
26743;DHT22;14341;51.256;22.478;2023-03-26T14:41:23;12.10;1.00
26743;DHT22;14341;51.256;22.478;2023-03-26T14:44:45;11.60;1.00
26743;DHT22;14341;51.256;22.478;2023-03-26T14:48:25;11.90;1.00
26743;DHT22;14341;51.256;22.478;2023-03-26T14:51:46;12.80;1.00
26743;DHT22;14341;51.256;22.478;2023-03-26T14:54:54;13.50;1.00
26743;DHT22;14341;51.256;22.478;2023-03-26T14:58:33;14.10;99.90
26743;DHT22;14341;51.256;22.478;2023-03-26T15:02:22;14.40;99.90
26743;DHT22;14341;51.256;22.478;2023-03-26T15:17:10;14.70;99.90
26743;DHT22;14341;51.256;22.478;2023-03-26T15:24:32;15.20;99.90
26743;DHT22;14341;51.256;22.478;2023-03-26T15:27:56;14.70;99.90
26743;DHT22;14341;51.256;22.478;2023-03-26T15:31:23;14.10;99.90
26743;DHT22;14341;51.256;22.478;2023-03-26T15:35:07;14.50;99.90
26743;DHT22;14341;51.256;22.478;2023-03-26T15:42:04;14.70;99.90
26743;DHT22;14341;51.256;22.478;2023-03-26T15:45:18;14.10;99.90
26743;DHT22;14341;51.256;22.478;2023-03-26T15:48:47;13.90;99.90
26743;DHT22;14341;51.256;22.478;2023-03-26T15:52:02;13.00;99.90
26743;DHT22;14341;51.256;22.478;2023-03-26T15:55:21;12.60;1.00
26743;DHT22;14341;51.256;22.478;2023-03-26T15:58:33;12.40;1.00
26743;DHT22;14341;51.256;22.478;2023-03-26T16:01:48;12.00;1.00
26743;DHT22;14341;51.256;22.478;2023-03-26T16:05:23;11.80;1.00
26743;DHT22;14341;51.256;22.478;2023-03-26T16:08:35;11.60;1.00
26743;DHT22;14341;51.256;22.478;2023-03-26T16:11:52;11.30;1.00
26743;DHT22;14341;51.256;22.478;2023-03-26T16:15:26;11.00;1.00
26743;DHT22;14341;51.256;22.478;2023-03-26T16:18:33;10.70;1.00
26743;DHT22;14341;51.256;22.478;2023-03-26T16:21:43;10.70;1.00
26743;DHT22;14341;51.256;22.478;2023-03-26T16:25:19;10.60;1.00
26743;DHT22;14341;51.256;22.478;2023-03-26T16:28:32;10.50;1.00
26743;DHT22;14341;51.256;22.478;2023-03-26T16:31:36;10.40;12.50
26743;DHT22;14341;51.256;22.478;2023-03-26T16:34:59;10.30;28.90
26743;DHT22;14341;51.256;22.478;2023-03-26T16:38:08;10.10;31.60
26743;DHT22;14341;51.256;22.478;2023-03-26T16:41:16;10.00;43.80
26743;DHT22;14341;51.256;22.478;2023-03-26T16:44:25;9.80;60.00
26743;DHT22;14341;51.256;22.478;2023-03-26T16:47:36;9.50;96.70
26743;DHT22;14341;51.256;22.478;2023-03-26T16:50:45;9.30;99.90
26743;DHT22;14341;51.256;22.478;2023-03-26T16:53:58;9.00;99.90
26743;DHT22;14341;51.256;22.478;2023-03-26T16:57:14;8.80;99.90
26743;DHT22;14341;51.256;22.478;2023-03-26T17:03:59;8.40;99.90
26743;DHT22;14341;51.256;22.478;2023-03-26T17:07:12;8.20;99.90
26743;DHT22;14341;51.256;22.478;2023-03-26T17:10:21;7.90;99.90
26743;DHT22;14341;51.256;22.478;2023-03-26T17:13:41;7.80;99.90
26743;DHT22;14341;51.256;22.478;2023-03-26T17:16:48;7.60;99.90
26743;DHT22;14341;51.256;22.478;2023-03-26T17:19:58;7.50;99.90
26743;DHT22;14341;51.256;22.478;2023-03-26T17:23:16;7.40;99.90
26743;DHT22;14341;51.256;22.478;2023-03-26T17:26:32;7.30;99.90
26743;DHT22;14341;51.256;22.478;2023-03-26T17:29:56;7.20;99.90
26743;DHT22;14341;51.256;22.478;2023-03-26T17:33:18;7.00;99.90
26743;DHT22;14341;51.256;22.478;2023-03-26T17:36:41;6.90;99.90
26743;DHT22;14341;51.256;22.478;2023-03-26T17:43:44;6.80;99.90
26743;DHT22;14341;51.256;22.478;2023-03-26T17:47:23;6.70;99.90
26743;DHT22;14341;51.256;22.478;2023-03-26T17:50:40;6.70;99.90
26743;DHT22;14341;51.256;22.478;2023-03-26T17:53:51;6.60;99.90
26743;DHT22;14341;51.256;22.478;2023-03-26T17:57:08;6.70;99.90
26743;DHT22;14341;51.256;22.478;2023-03-26T18:00:28;6.80;99.90
26743;DHT22;14341;51.256;22.478;2023-03-26T18:03:40;6.90;99.90
26743;DHT22;14341;51.256;22.478;2023-03-26T18:11:08;7.00;99.90
26743;DHT22;14341;51.256;22.478;2023-03-26T18:14:42;7.10;99.90
26743;DHT22;14341;51.256;22.478;2023-03-26T18:18:06;7.30;99.90
26743;DHT22;14341;51.256;22.478;2023-03-26T18:21:22;7.50;99.90
26743;DHT22;14341;51.256;22.478;2023-03-26T18:24:35;7.70;99.90
26743;DHT22;14341;51.256;22.478;2023-03-26T18:27:47;8.00;99.90
26743;DHT22;14341;51.256;22.478;2023-03-26T18:31:05;8.10;99.90
26743;DHT22;14341;51.256;22.478;2023-03-26T18:34:18;8.10;99.90
26743;DHT22;14341;51.256;22.478;2023-03-26T18:37:33;8.10;99.90
26743;DHT22;14341;51.256;22.478;2023-03-26T18:40:44;8.10;99.90
26743;DHT22;14341;51.256;22.478;2023-03-26T18:44:18;8.00;99.90
26743;DHT22;14341;51.256;22.478;2023-03-26T18:47:28;7.70;99.90
26743;DHT22;14341;51.256;22.478;2023-03-26T18:50:45;7.60;99.90
26743;DHT22;14341;51.256;22.478;2023-03-26T18:54:02;7.30;99.90
26743;DHT22;14341;51.256;22.478;2023-03-26T18:57:09;7.10;99.90
26743;DHT22;14341;51.256;22.478;2023-03-26T19:00:26;7.00;99.90
26743;DHT22;14341;51.256;22.478;2023-03-26T19:03:39;6.80;99.90
26743;DHT22;14341;51.256;22.478;2023-03-26T19:07:05;6.60;99.90
26743;DHT22;14341;51.256;22.478;2023-03-26T19:10:18;6.50;99.90
26743;DHT22;14341;51.256;22.478;2023-03-26T19:13:27;6.50;99.90
26743;DHT22;14341;51.256;22.478;2023-03-26T19:16:37;6.50;99.90
26743;DHT22;14341;51.256;22.478;2023-03-26T19:19:50;6.50;99.90
26743;DHT22;14341;51.256;22.478;2023-03-26T19:22:55;6.60;99.90
26743;DHT22;14341;51.256;22.478;2023-03-26T19:26:05;6.60;99.90
26743;DHT22;14341;51.256;22.478;2023-03-26T19:29:14;6.50;99.90
26743;DHT22;14341;51.256;22.478;2023-03-26T19:32:30;6.30;99.90
26743;DHT22;14341;51.256;22.478;2023-03-26T19:35:37;6.20;99.90
26743;DHT22;14341;51.256;22.478;2023-03-26T19:38:49;6.00;99.90
26743;DHT22;14341;51.256;22.478;2023-03-26T19:41:56;6.00;99.90
26743;DHT22;14341;51.256;22.478;2023-03-26T19:45:16;6.00;99.90
26743;DHT22;14341;51.256;22.478;2023-03-26T19:48:21;6.00;99.90
26743;DHT22;14341;51.256;22.478;2023-03-26T19:51:49;5.90;99.90
26743;DHT22;14341;51.256;22.478;2023-03-26T19:54:59;5.80;99.90
26743;DHT22;14341;51.256;22.478;2023-03-26T19:58:19;5.80;99.90
26743;DHT22;14341;51.256;22.478;2023-03-26T20:01:29;5.70;99.90
26743;DHT22;14341;51.256;22.478;2023-03-26T20:04:34;5.60;99.90
26743;DHT22;14341;51.256;22.478;2023-03-26T20:07:47;5.50;99.90
26743;DHT22;14341;51.256;22.478;2023-03-26T20:11:11;5.50;99.90
26743;DHT22;14341;51.256;22.478;2023-03-26T20:14:34;5.60;99.90
26743;DHT22;14341;51.256;22.478;2023-03-26T20:17:53;5.60;99.90
26743;DHT22;14341;51.256;22.478;2023-03-26T20:21:42;5.70;99.90
26743;DHT22;14341;51.256;22.478;2023-03-26T20:25:07;5.70;99.90
26743;DHT22;14341;51.256;22.478;2023-03-26T20:28:22;5.70;99.90
26743;DHT22;14341;51.256;22.478;2023-03-26T20:32:21;5.60;99.90
26743;DHT22;14341;51.256;22.478;2023-03-26T20:39:40;5.60;99.90
26743;DHT22;14341;51.256;22.478;2023-03-26T20:43:23;5.50;99.90
26743;DHT22;14341;51.256;22.478;2023-03-26T20:46:39;5.50;99.90
26743;DHT22;14341;51.256;22.478;2023-03-26T20:50:12;5.40;99.90
26743;DHT22;14341;51.256;22.478;2023-03-26T20:53:21;5.40;99.90
26743;DHT22;14341;51.256;22.478;2023-03-26T20:56:38;5.40;99.90
26743;DHT22;14341;51.256;22.478;2023-03-26T20:59:53;5.40;99.90
26743;DHT22;14341;51.256;22.478;2023-03-26T21:03:00;5.30;99.90
26743;DHT22;14341;51.256;22.478;2023-03-26T21:06:27;5.20;99.90
26743;DHT22;14341;51.256;22.478;2023-03-26T21:10:22;5.00;99.90
26743;DHT22;14341;51.256;22.478;2023-03-26T21:13:42;4.80;99.90
26743;DHT22;14341;51.256;22.478;2023-03-26T21:17:26;4.80;99.90
26743;DHT22;14341;51.256;22.478;2023-03-26T21:21:03;4.90;99.90
26743;DHT22;14341;51.256;22.478;2023-03-26T21:24:50;4.80;99.90
26743;DHT22;14341;51.256;22.478;2023-03-26T21:28:15;4.70;99.90
26743;DHT22;14341;51.256;22.478;2023-03-26T21:31:39;4.60;99.90
26743;DHT22;14341;51.256;22.478;2023-03-26T21:34:54;4.50;99.90
26743;DHT22;14341;51.256;22.478;2023-03-26T21:38:11;4.30;99.90
26743;DHT22;14341;51.256;22.478;2023-03-26T21:41:38;4.30;99.90
26743;DHT22;14341;51.256;22.478;2023-03-26T21:45:27;4.10;99.90
26743;DHT22;14341;51.256;22.478;2023-03-26T21:48:54;4.00;99.90
26743;DHT22;14341;51.256;22.478;2023-03-26T21:52:09;3.80;99.90
26743;DHT22;14341;51.256;22.478;2023-03-26T21:55:20;3.70;99.90
26743;DHT22;14341;51.256;22.478;2023-03-26T21:58:51;3.60;99.90
26743;DHT22;14341;51.256;22.478;2023-03-26T22:02:03;3.50;99.90
26743;DHT22;14341;51.256;22.478;2023-03-26T22:05:39;3.50;99.90
26743;DHT22;14341;51.256;22.478;2023-03-26T22:08:59;3.50;99.90
26743;DHT22;14341;51.256;22.478;2023-03-26T22:12:18;3.50;99.90
26743;DHT22;14341;51.256;22.478;2023-03-26T22:15:32;3.40;99.90
26743;DHT22;14341;51.256;22.478;2023-03-26T22:19:15;3.30;99.90